CDT,Max TemperatureF,Mean TemperatureF,Min TemperatureF,Max Dew PointF,MeanDew PointF,Min DewpointF,Max Humidity, Mean Humidity, Min Humidity, Max Sea Level PressureIn, Mean Sea Level PressureIn, Min Sea Level PressureIn, Max VisibilityMiles, Mean VisibilityMiles, Min VisibilityMiles, Max Wind SpeedMPH, Mean Wind SpeedMPH, Max Gust SpeedMPH,PrecipitationIn, CloudCover, Events, WindDirDegrees
2013-9-1,86,80,75,75,72,70,94,81,66,29.91,29.85,29.80,10,9,5,13,6,16,0.00,1,Thunderstorm,154
2013-9-2,89,79,69,73,71,66,100,78,52,29.94,29.89,29.84,10,9,2,10,4,,0.00,0,,339
2013-9-3,82,66,51,64,62,57,100,73,42,30.06,30.01,29.94,10,10,5,12,6,16,0.00,0,,20
2013-9-4,82,68,55,66,62,55,100,78,51,30.16,30.10,30.04,10,10,6,9,5,22,0.00,0,,25
2013-9-5,82,70,59,66,64,59,100,81,54,30.20,30.15,30.12,10,9,3,12,5,,0.00,0,,19
2013-9-6,84,72,60,72,66,61,100,86,58,30.17,30.11,30.04,10,8,3,7,4,,0.00,0,,37
2013-9-7,89,76,62,72,67,63,100,79,43,30.08,30.02,29.95,10,9,4,8,3,,0.00,0,,175
2013-9-8,91,78,66,75,71,64,100,78,52,29.99,29.94,29.88,10,9,3,8,4,,0.00,0,,141
2013-9-9,96,84,71,79,73,70,100,80,44,30.01,29.97,29.93,10,8,3,13,2,20,0.10,0,Thunderstorm,161
2013-9-10,95,82,69,72,70,64,100,72,38,30.13,30.08,30.01,10,9,5,13,4,,0.00,0,,145
2013-9-11,91,80,69,75,71,68,100,77,52,30.16,30.11,30.06,10,9,7,13,3,,0.00,0,Thunderstorm,155
2013-9-12,89,79,69,75,72,68,100,82,55,30.07,30.02,29.95,10,8,5,13,2,21,0.00,0,Thunderstorm,339
2013-9-13,78,63,48,70,57,54,100,65,44,30.09,30.04,30.00,10,10,5,14,8,18,0.00,1,,27
2013-9-14,75,58,41,54,50,46,100,61,38,30.15,30.08,30.04,10,10,5,12,6,22,0.00,0,,29
2013-9-15,82,64,46,59,53,46,100,65,32,30.12,30.07,30.05,10,10,5,12,3,,0.00,0,,221
2013-9-16,78,70,62,66,63,55,94,80,60,30.20,30.15,30.07,10,10,4,16,7,16,0.00,1,,28
2013-9-17,82,73,64,70,65,61,94,85,58,30.19,30.13,30.06,10,10,3,10,6,,0.00,0,,38
2013-9-18,84,75,66,72,68,64,100,83,62,30.10,30.04,29.99,10,10,7,12,5,16,0.00,0,,144
2013-9-19,89,78,68,73,70,68,100,82,55,30.06,30.00,29.93,10,9,5,18,9,23,0.00,0,,179
2013-9-20,73,68,64,70,67,64,100,94,78,29.97,29.91,29.85,10,10,6,14,7,18,0.54,4,,309
2013-9-21,77,66,55,63,55,50,94,69,39,29.97,29.91,29.88,10,10,10,14,9,20,0.00,1,,352
2013-9-22,75,60,46,55,52,46,100,71,44,30.01,29.94,29.90,10,10,3,10,6,,0.00,0,,19
2013-9-23,80,60,39,61,55,46,100,72,42,29.99,29.93,29.89,10,10,3,12,6,,0.00,0,,61
2013-9-24,84,72,59,70,61,57,100,76,42,29.91,29.85,29.78,10,10,4,13,6,,0.00,1,,109
2013-9-25,80,70,60,70,63,59,100,78,51,29.86,29.82,29.78,10,10,0,10,5,,0.00,2,,344
2013-9-26,84,73,62,68,63,61,100,82,48,29.99,29.93,29.86,10,8,3,8,5,,0.00,1,,47
2013-9-27,86,74,62,68,63,61,94,76,45,30.09,30.03,29.99,10,10,5,13,5,,0.00,1,,102
2013-9-28,73,68,64,64,62,61,94,87,69,30.09,30.03,30.00,10,10,10,16,6,,0.00,3,,160
2013-9-29,71,68,66,66,65,64,100,88,78,30.03,29.99,29.96,10,7,1,9,6,,0.00,8,,34
2013-9-30,77,72,66,66,66,64,100,90,69,29.98,29.95,29.91,10,7,1,10,5,,0.00,6,,104